METAR Data
IDs: Format: Raw Decoded Include TAF

Data at: 1235 UTC 17 Sep 2019

METAR for:EBBE (Beauvechain(AB), --, BX)
Text:EBBE 171155Z 34007KT 9999 FEW038 SCT200 18/07 Q1023 BLU BLU
Temperature: 18.0°C ( 64°F)
Dewpoint: 7.0°C ( 45°F) [RH = 49%]
Pressure (altimeter):30.21 inches Hg (1023.0 mb)
Winds:from the NNW (340 degrees) at 8 MPH (7 knots; 3.6 m/s)
Visibility:6 or more sm (10+ km)
Ceiling:at least 12,000 feet AGL
Clouds: few clouds at 3800 feet AGL, scattered clouds at 20000 feet AGL

TAF for:EBBE (Beauvechain(AB), --, BX) issued at 1141 UTC 17 Sep 2019
Text:TAF EBBE 171141Z 1713/1722 30011KT 9999 FEW040 SCT270
Forecast period:1300 to 2000 UTC 17 September 2019
Forecast type:FROM: standard forecast or significant change
Winds:from the WNW (300 degrees) at 13 MPH (11 knots; 5.7 m/s)
Visibility:6 or more sm (10+ km)
Ceiling:at least 12,000 feet AGL
Clouds: few clouds at 4000 feet AGL, scattered clouds at 27000 feet AGL
Text:BECMG 1720/1722 02004KT
Forecast period:2000 to 2200 UTC 17 September 2019
Forecast type:BECOMING: Conditions expected to become as follows by 2200 UTC 17 September 2019
Winds:from the NNE (20 degrees) at 5 MPH (4 knots; 2.1 m/s)
Visibility:6 or more sm (10+ km)
Ceiling:at least 12,000 feet AGL
Clouds: few clouds at 4000 feet AGL, scattered clouds at 27000 feet AGL